Time;durP1;ratioP1;P1;durP2;ratioP2;P2;SDS_P1;SDS_P2;PMS_P1;PMS_P2;Temp;Humidity;BMP_temperature;BMP_pressure;BME280_temperature;BME280_humidity;BME280_pressure;Samples;Min_cycle;Max_cycle;Signal;HPM_P1;HPM_P2
2022/01/12 00:01:52;;;;;;;8.35;4.50;;;;;;;1.75;82.78;103492.81;5072172;28;20032;-89
2022/01/12 00:04:17;;;;;;;8.00;3.92;;;;;;;1.78;82.67;103499.84;5075005;28;20035;-88
2022/01/12 00:06:56;;;;;;;7.63;3.92;;;;;;;1.74;82.53;103491.09;5076152;28;20067;-88
2022/01/12 00:09:21;;;;;;;9.90;4.00;;;;;;;1.79;82.60;103504.19;5076257;28;20350;-88
2022/01/12 00:11:46;;;;;;;10.57;4.80;;;;;;;1.79;82.40;103507.63;5076569;28;20083;-88
2022/01/12 00:14:12;;;;;;;10.65;4.38;;;;;;;1.77;82.67;103510.88;5076239;28;20021;-88
2022/01/12 00:16:39;;;;;;;8.80;4.18;;;;;;;1.81;82.29;103521.41;5075999;28;20078;-88
2022/01/12 00:19:04;;;;;;;8.45;4.13;;;;;;;1.83;82.74;103524.97;5075235;28;20550;-88
2022/01/12 00:21:44;;;;;;;12.07;4.55;;;;;;;1.84;82.78;103518.16;5075791;28;20033;-88
2022/01/12 00:24:10;;;;;;;8.82;4.32;;;;;;;1.83;82.62;103518.94;5068722;28;20115;-88
2022/01/12 00:33:07;;;;;;;8.40;3.85;;;;;;;1.87;82.56;103517.44;5076038;28;20048;-88
2022/01/12 00:34:54;;;;;;;12.13;5.45;;;;;;;1.86;82.48;103531.94;5075933;28;20039;-88
2022/01/12 00:37:19;;;;;;;10.38;4.93;;;;;;;1.88;82.59;103537.16;5074518;28;20029;-88
2022/01/12 00:39:44;;;;;;;10.40;4.50;;;;;;;1.88;82.34;103532.94;5075992;28;20025;-88
2022/01/12 00:42:13;;;;;;;10.73;4.65;;;;;;;1.87;82.54;103535.38;5075722;28;20025;-87
2022/01/12 00:44:44;;;;;;;12.32;5.18;;;;;;;1.86;82.03;103542.19;5075283;28;20522;-88
2022/01/12 00:47:10;;;;;;;9.82;4.38;;;;;;;1.86;82.44;103549.88;5075237;28;20033;-88
2022/01/12 00:49:36;;;;;;;8.98;4.43;;;;;;;1.84;82.47;103549.78;5074727;28;20095;-88
2022/01/12 00:52:01;;;;;;;7.95;4.05;;;;;;;1.85;83.00;103555.78;5079908;28;20028;-88
2022/01/12 00:54:26;;;;;;;10.75;4.50;;;;;;;1.83;82.85;103560.81;5074892;28;20108;-88
2022/01/12 00:56:51;;;;;;;10.48;4.90;;;;;;;1.83;83.30;103562.47;5074297;28;20044;-88
2022/01/12 00:59:17;;;;;;;11.63;5.13;;;;;;;1.82;83.70;103565.81;5075029;28;20028;-88
2022/01/12 01:01:43;;;;;;;11.10;4.97;;;;;;;1.80;83.55;103565.72;5075029;28;20024;-88
2022/01/12 01:04:08;;;;;;;14.95;5.90;;;;;;;1.80;83.35;103569.97;5074992;28;20481;-88
2022/01/12 01:06:35;;;;;;;11.77;5.35;;;;;;;1.75;84.19;103563.66;5075011;28;20032;-88
2022/01/12 01:09:00;;;;;;;10.18;5.07;;;;;;;1.76;83.68;103568.84;5075774;28;20020;-89
2022/01/12 01:11:26;;;;;;;11.32;5.03;;;;;;;1.74;84.00;103573.03;5075116;28;20028;-90
2022/01/12 01:13:59;;;;;;;9.65;4.40;;;;;;;1.75;84.06;103571.34;5075279;28;20016;-90
2022/01/12 01:16:43;;;;;;;12.57;5.70;;;;;;;1.75;83.83;103566.22;5074587;28;20742;-90
2022/01/12 01:27:23;;;;;;;14.55;6.45;;;;;;;1.71;84.63;103554.88;5074996;28;20492;-90
2022/01/12 01:29:48;;;;;;;18.83;8.07;;;;;;;1.68;84.01;103547.00;5074914;28;20029;-90
2022/01/12 01:32:14;;;;;;;18.58;8.23;;;;;;;1.65;84.41;103544.22;5075105;28;20151;-89
2022/01/12 01:34:45;;;;;;;15.63;7.25;;;;;;;1.61;84.68;103561.06;5075217;28;20020;-90
2022/01/12 01:37:10;;;;;;;17.50;7.03;;;;;;;1.60;85.19;103566.97;5074816;28;20025;-90
2022/01/12 01:39:36;;;;;;;16.05;6.70;;;;;;;1.58;85.31;103563.41;5075205;28;20055;-90
2022/01/12 01:42:07;;;;;;;15.93;6.95;;;;;;;1.54;85.78;103570.03;5075023;28;20028;-90
2022/01/12 01:53:17;;;;;;;14.75;6.18;;;;;;;1.54;85.39;103581.94;5075431;28;20374;-90
2022/01/12 01:55:32;;;;;;;12.65;5.70;;;;;;;1.52;86.88;103563.91;5076366;28;20071;-90
2022/01/12 01:57:58;;;;;;;15.10;6.57;;;;;;;1.51;85.72;103548.47;5076915;28;20028;-90
2022/01/12 02:00:25;;;;;;;14.93;6.55;;;;;;;1.50;86.48;103555.25;5074584;28;20020;-90
2022/01/12 02:02:55;;;;;;;17.58;7.28;;;;;;;1.49;85.31;103543.25;5074583;28;20093;-90
2022/01/12 02:05:20;;;;;;;17.25;8.02;;;;;;;1.46;86.43;103535.34;5074664;28;20025;-90
2022/01/12 02:07:45;;;;;;;16.88;7.65;;;;;;;1.45;85.52;103532.72;5074097;28;20036;-90
2022/01/12 02:10:11;;;;;;;16.48;7.45;;;;;;;1.47;85.26;103542.25;5074308;28;20030;-90
2022/01/12 02:12:36;;;;;;;16.35;7.25;;;;;;;1.45;85.78;103543.81;5074438;28;20029;-90
2022/01/12 02:15:18;;;;;;;16.17;7.22;;;;;;;1.45;85.73;103532.72;5074211;28;20389;-89
2022/01/12 02:18:00;;;;;;;15.70;7.20;;;;;;;1.46;86.11;103537.91;5073753;28;20090;-90
2022/01/12 02:36:56;;;;;;;13.18;5.93;;;;;;;1.46;86.19;103566.06;5074115;28;20508;-90
2022/01/12 02:42:07;;;;;;;12.65;5.85;;;;;;;1.49;85.88;103578.19;5073906;28;20067;-90
2022/01/12 02:55:27;;;;;;;11.40;4.63;;;;;;;1.57;86.46;103584.72;5073330;28;20109;-88
2022/01/12 02:57:52;;;;;;;10.00;4.47;;;;;;;1.57;86.81;103591.50;5072863;28;20040;-90
2022/01/12 03:00:20;;;;;;;9.52;4.53;;;;;;;1.57;86.91;103591.50;5073453;28;20033;-90
2022/01/12 03:02:50;;;;;;;10.95;4.60;;;;;;;1.56;87.29;103595.75;5076055;28;20461;-90
2022/01/12 03:05:34;;;;;;;10.35;4.72;;;;;;;1.56;86.69;103597.38;5075170;28;20027;-89
2022/01/12 03:08:09;;;;;;;9.45;4.47;;;;;;;1.56;86.85;103611.09;5074011;28;20050;-90
2022/01/12 03:10:34;;;;;;;10.77;4.50;;;;;;;1.56;86.62;103613.66;5074090;28;20080;-90
2022/01/12 03:12:59;;;;;;;8.77;4.15;;;;;;;1.60;86.86;103620.72;5073655;28;20025;-90
2022/01/12 03:15:24;;;;;;;8.55;4.30;;;;;;;1.61;86.73;103627.63;5073577;28;20028;-90
2022/01/12 03:17:49;;;;;;;8.50;4.00;;;;;;;1.61;86.81;103622.50;5073448;28;20092;-90
2022/01/12 03:20:15;;;;;;;9.18;4.28;;;;;;;1.63;87.26;103631.19;5074693;28;20017;-90
2022/01/12 03:22:40;;;;;;;9.52;4.22;;;;;;;1.61;87.01;103629.31;5076003;28;20021;-90
2022/01/12 03:25:06;;;;;;;10.70;4.50;;;;;;;1.63;87.16;103635.44;5073150;28;20457;-88
2022/01/12 03:27:32;;;;;;;11.70;4.35;;;;;;;1.63;86.83;103635.44;5073569;28;20063;-90
2022/01/12 03:29:57;;;;;;;10.75;4.50;;;;;;;1.63;87.03;103631.19;5073209;28;20056;-90
2022/01/12 03:32:36;;;;;;;10.77;4.57;;;;;;;1.62;86.93;103626.84;5073471;28;20025;-90
2022/01/12 03:35:22;;;;;;;15.05;6.03;;;;;;;1.59;87.28;103631.75;5073573;28;20077;-90
2022/01/12 03:38:19;;;;;;;15.07;6.53;;;;;;;1.60;86.92;103627.53;5073802;28;20025;-90
2022/01/12 03:40:38;;;;;;;15.73;6.68;;;;;;;1.58;86.60;103622.28;5076954;28;20039;-89
2022/01/12 03:43:06;;;;;;;13.52;5.88;;;;;;;1.59;86.80;103626.63;5077397;28;20024;-89
2022/01/12 03:45:31;;;;;;;13.13;5.60;;;;;;;1.60;86.98;103620.72;5077556;28;20033;-89
2022/01/12 03:47:56;;;;;;;13.57;6.00;;;;;;;1.60;86.73;103630.97;5076695;28;20040;-90
2022/01/12 03:50:21;;;;;;;13.57;5.40;;;;;;;1.61;87.36;103617.38;5079139;28;20025;-89
2022/01/12 03:52:47;;;;;;;12.88;5.43;;;;;;;1.59;87.07;103613.84;5081094;28;20035;-90
2022/01/12 03:55:12;;;;;;;12.13;5.40;;;;;;;1.61;86.84;103624.19;5076284;28;20093;-90
2022/01/12 03:57:37;;;;;;;12.20;5.07;;;;;;;1.62;87.10;103629.41;5077222;28;20024;-90
2022/01/12 04:00:04;;;;;;;11.20;4.95;;;;;;;1.63;87.33;103644.00;5076934;28;20069;-89
2022/01/12 04:02:30;;;;;;;9.93;4.75;;;;;;;1.60;87.37;103645.47;5076666;28;20462;-90
2022/01/12 04:05:26;;;;;;;12.18;5.13;;;;;;;1.60;87.62;103651.44;5076755;28;20013;-90
2022/01/12 04:10:54;;;;;;;10.07;4.53;;;;;;;1.57;87.04;103647.81;5069975;28;20127;-90
2022/01/12 04:13:25;;;;;;;11.18;4.65;;;;;;;1.58;87.06;103653.00;5077196;28;20020;-90
2022/01/12 04:15:54;;;;;;;9.43;4.60;;;;;;;1.61;87.12;103647.25;5076962;28;20024;-90
2022/01/12 04:18:19;;;;;;;9.88;4.65;;;;;;;1.65;87.93;103649.19;5076549;28;20021;-90
2022/01/12 04:20:49;;;;;;;11.52;4.80;;;;;;;1.65;86.85;103650.09;5076664;28;20028;-90
2022/01/12 04:23:22;;;;;;;10.00;4.72;;;;;;;1.65;86.98;103654.31;5076445;28;20099;-90
2022/01/12 04:25:50;;;;;;;12.18;5.13;;;;;;;1.66;87.25;103653.53;5076676;28;20101;-90
2022/01/12 04:28:17;;;;;;;13.07;5.20;;;;;;;1.70;87.00;103663.22;5076473;28;20035;-90
2022/01/12 04:30:43;;;;;;;11.00;4.85;;;;;;;1.72;87.07;103650.50;5076876;28;20025;-90
2022/01/12 04:33:09;;;;;;;9.87;4.53;;;;;;;1.72;87.23;103646.28;5076521;28;20021;-91
2022/01/12 04:35:37;;;;;;;11.50;5.18;;;;;;;1.72;87.42;103653.06;5076396;28;20100;-91
2022/01/12 04:38:04;;;;;;;12.65;5.40;;;;;;;1.71;87.24;103641.94;5076375;28;20455;-91
2022/01/12 04:40:30;;;;;;;14.68;5.95;;;;;;;1.73;86.81;103642.94;5075968;28;20469;-90
2022/01/12 04:42:56;;;;;;;17.60;7.20;;;;;;;1.72;86.73;103641.16;5076130;28;20510;-90
2022/01/12 04:50:24;;;;;;;13.55;5.60;;;;;;;1.70;86.87;103635.91;5076151;28;20056;-90
2022/01/12 04:52:50;;;;;;;13.52;6.10;;;;;;;1.75;87.01;103641.34;5082076;28;20047;-90
2022/01/12 04:55:15;;;;;;;14.40;6.20;;;;;;;1.74;87.12;103637.03;5075738;28;20469;-91
2022/01/12 04:57:41;;;;;;;15.40;6.15;;;;;;;1.75;87.19;103635.34;5076095;28;20029;-90
2022/01/12 05:00:18;;;;;;;17.33;7.40;;;;;;;1.72;87.02;103622.34;5075858;28;20019;-89
2022/01/12 05:08:22;;;;;;;14.43;5.95;;;;;;;1.72;87.36;103622.34;5075516;28;20035;-91
2022/01/12 05:13:33;;;;;;;14.18;5.70;;;;;;;1.73;87.19;103631.78;5076103;28;20039;-90
2022/01/12 05:16:00;;;;;;;13.23;5.60;;;;;;;1.74;87.16;103637.03;5075749;28;20479;-90
2022/01/12 05:18:26;;;;;;;13.00;5.30;;;;;;;1.74;87.23;103639.59;5075598;28;20024;-90
2022/01/12 05:20:51;;;;;;;10.65;4.72;;;;;;;1.75;87.27;103638.78;5075558;28;20028;-90
2022/01/12 05:23:16;;;;;;;13.90;5.35;;;;;;;1.74;87.49;103637.03;5075399;28;20028;-90
2022/01/12 05:25:42;;;;;;;9.40;4.30;;;;;;;1.76;87.39;103639.69;5075225;28;20021;-90
2022/01/12 05:28:17;;;;;;;12.48;5.00;;;;;;;1.76;87.50;103639.69;5075184;28;20123;-90
2022/01/12 05:30:53;;;;;;;14.63;5.53;;;;;;;1.78;87.64;103643.25;5075742;28;20060;-90
2022/01/12 05:33:20;;;;;;;10.40;4.50;;;;;;;1.79;87.51;103648.44;5075072;28;20021;-90
2022/01/12 05:35:48;;;;;;;11.82;4.80;;;;;;;1.74;87.22;103641.25;5075507;28;20024;-90
2022/01/12 05:38:14;;;;;;;10.73;4.70;;;;;;;1.77;87.52;103651.72;5074966;28;20032;-90
2022/01/12 05:40:45;;;;;;;12.77;5.22;;;;;;;1.74;87.48;103656.63;5075314;28;20093;-90
2022/01/12 05:43:10;;;;;;;12.00;5.25;;;;;;;1.77;87.51;103659.38;5075131;28;20372;-90
2022/01/12 05:45:38;;;;;;;12.07;4.95;;;;;;;1.81;87.39;103669.94;5075066;28;20091;-90
2022/01/12 05:50:37;;;;;;;11.57;4.90;;;;;;;1.82;87.41;103663.13;5086666;28;20037;-90
2022/01/12 05:53:03;;;;;;;11.10;4.43;;;;;;;1.81;87.68;103661.34;5081884;28;20020;-92
2022/01/12 05:55:28;;;;;;;12.35;4.78;;;;;;;1.83;87.58;103659.78;5078067;28;20120;-91
2022/01/12 05:57:54;;;;;;;14.48;5.80;;;;;;;1.81;87.48;103654.56;5076729;28;20045;-90
2022/01/12 06:00:21;;;;;;;17.65;7.38;;;;;;;1.82;87.37;103655.44;5074694;28;20531;-91
2022/01/12 06:02:46;;;;;;;15.20;6.35;;;;;;;1.82;87.46;103652.88;5074681;28;20025;-90
2022/01/12 06:05:22;;;;;;;15.48;6.07;;;;;;;1.77;87.48;103651.72;5070185;28;20139;-90
2022/01/12 06:07:49;;;;;;;15.82;6.32;;;;;;;1.85;87.70;103671.03;5074585;28;20035;-90
2022/01/12 06:10:15;;;;;;;;;;;;;;;1.85;87.59;103671.94;5074843;28;20052;-89
2022/01/12 06:12:41;;;;;;;16.45;7.03;;;;;;;1.83;87.52;103664.91;5074576;28;19915;-90
2022/01/12 06:15:07;;;;;;;17.23;6.97;;;;;;;1.85;87.49;103671.03;5073304;28;20029;-90
2022/01/12 06:17:35;;;;;;;14.95;6.00;;;;;;;1.85;87.66;103676.16;5074563;28;20469;-90
2022/01/12 06:20:09;;;;;;;14.85;5.90;;;;;;;1.84;87.63;103677.84;5074600;28;20017;-90
2022/01/12 06:22:40;;;;;;;13.85;6.10;;;;;;;1.79;87.73;103678.31;5074513;28;20492;-90
2022/01/12 06:25:09;;;;;;;14.15;6.00;;;;;;;1.81;87.62;103692.97;5074410;28;20028;-89
2022/01/12 06:27:35;;;;;;;16.48;6.82;;;;;;;1.80;88.07;103695.47;5074454;28;20020;-91
2022/01/12 06:31:10;;;;;;;15.80;6.30;;;;;;;1.74;88.22;103688.25;5073565;28;20024;-90
2022/01/12 06:32:49;;;;;;;15.35;6.22;;;;;;;1.79;87.59;103702.22;5073962;28;20484;-90
2022/01/12 06:35:14;;;;;;;14.82;6.18;;;;;;;1.79;88.05;103709.91;5072962;28;20032;-90
2022/01/12 06:37:40;;;;;;;13.27;5.40;;;;;;;1.78;87.89;103697.03;5074144;28;20074;-89
2022/01/12 06:40:06;;;;;;;13.85;5.88;;;;;;;1.81;87.97;103712.56;5074075;28;20021;-90
2022/01/12 06:42:32;;;;;;;13.57;5.32;;;;;;;1.82;88.24;103724.59;5073163;28;20544;-89
2022/01/12 06:44:57;;;;;;;14.07;5.63;;;;;;;1.80;87.97;103723.63;5074003;28;20488;-90
2022/01/12 06:47:22;;;;;;;13.18;5.70;;;;;;;1.78;88.04;103736.31;5073421;28;20025;-91
2022/01/12 06:49:52;;;;;;;12.35;5.53;;;;;;;1.80;88.00;103742.41;5073832;28;20050;-91
2022/01/12 06:52:17;;;;;;;13.73;5.72;;;;;;;1.77;88.27;103731.09;5087302;28;20032;-91
2022/01/12 06:54:42;;;;;;;13.27;5.70;;;;;;;1.77;87.96;103726.84;5074140;28;20116;-91
2022/01/12 06:57:07;;;;;;;12.50;5.15;;;;;;;1.78;88.16;103717.50;5073462;28;20040;-91
2022/01/12 06:59:33;;;;;;;11.90;4.90;;;;;;;1.80;87.97;103731.31;5073392;28;20158;-91
2022/01/12 07:01:58;;;;;;;12.40;5.30;;;;;;;1.78;87.66;103730.31;5073768;28;20382;-91
2022/01/12 07:04:24;;;;;;;10.95;4.40;;;;;;;1.83;88.25;103736.63;5073610;28;20368;-91
2022/01/12 07:06:50;;;;;;;11.18;4.93;;;;;;;1.82;88.06;103735.75;5074227;28;20096;-91
2022/01/12 07:09:16;;;;;;;12.90;5.10;;;;;;;1.83;87.97;103734.97;5073722;28;20524;-90
2022/01/12 07:11:51;;;;;;;12.57;5.10;;;;;;;1.86;88.13;103752.19;5021824;28;20036;-91
2022/01/12 07:14:16;;;;;;;10.68;4.85;;;;;;;1.84;87.81;103748.63;5072219;28;20089;-89
2022/01/12 07:16:41;;;;;;;13.35;5.32;;;;;;;1.90;87.81;103748.16;5073323;28;20108;-88
2022/01/12 07:19:06;;;;;;;11.35;4.95;;;;;;;1.92;88.14;103750.03;5073049;28;20029;-89
2022/01/12 07:21:32;;;;;;;11.88;4.90;;;;;;;1.93;87.93;103746.69;5072391;28;20024;-83
2022/01/12 07:23:57;;;;;;;13.93;5.70;;;;;;;1.94;88.31;103738.22;5072573;28;20482;-82
2022/01/12 07:26:23;;;;;;;10.45;4.78;;;;;;;1.96;87.86;103762.28;5071988;28;20047;-83
2022/01/12 07:28:50;;;;;;;13.07;5.32;;;;;;;1.96;87.87;103756.28;5072391;28;20029;-83
2022/01/12 07:31:15;;;;;;;13.32;5.80;;;;;;;1.98;87.97;103763.28;5071269;28;20027;-83
2022/01/12 07:33:40;;;;;;;12.90;5.55;;;;;;;1.99;88.00;103759.94;5072613;28;20504;-83
2022/01/12 07:36:06;;;;;;;12.13;5.25;;;;;;;2.00;88.35;103773.59;5072207;28;20035;-82
2022/01/12 07:38:31;;;;;;;13.00;5.30;;;;;;;2.01;87.89;103783.06;5071836;28;20028;-82
2022/01/12 07:40:56;;;;;;;11.75;4.93;;;;;;;2.01;88.25;103788.19;5072552;28;20028;-82
2022/01/12 07:43:22;;;;;;;10.38;4.43;;;;;;;2.02;88.04;103797.66;5072372;28;20071;-82
2022/01/12 07:45:47;;;;;;;11.85;4.68;;;;;;;2.00;88.19;103800.13;5071617;28;20358;-82
2022/01/12 07:48:13;;;;;;;10.10;4.15;;;;;;;1.94;88.43;103794.56;5073088;28;20376;-91
2022/01/12 07:50:39;;;;;;;10.50;4.55;;;;;;;1.98;88.02;103795.66;5074167;28;20074;-89
2022/01/12 07:53:04;;;;;;;10.63;4.57;;;;;;;2.02;88.35;103799.34;5081892;28;20028;-89
2022/01/12 07:55:29;;;;;;;12.07;5.07;;;;;;;2.03;88.33;103808.81;5072848;28;20041;-91
2022/01/12 07:57:55;;;;;;;10.02;4.28;;;;;;;2.03;88.24;103804.56;5073519;28;20435;-92
2022/01/12 08:00:20;;;;;;;9.88;4.22;;;;;;;2.05;88.06;103817.47;5073274;28;20036;-90
2022/01/12 08:02:45;;;;;;;13.05;4.88;;;;;;;2.05;88.38;103817.47;5073085;28;20074;-90
2022/01/12 08:05:11;;;;;;;9.18;4.32;;;;;;;2.07;88.14;103832.19;5073087;28;20033;-92
2022/01/12 08:07:38;;;;;;;12.77;4.95;;;;;;;2.08;88.15;103833.06;5072965;28;20029;-91
2022/01/12 08:10:05;;;;;;;10.43;4.40;;;;;;;2.08;88.37;103836.53;5073512;28;20354;-91
2022/01/12 08:12:31;;;;;;;9.65;4.10;;;;;;;2.06;88.14;103842.31;5073602;28;20041;-92
2022/01/12 08:14:56;;;;;;;8.52;4.00;;;;;;;2.04;88.13;103849.91;5073090;28;20155;-90
2022/01/12 08:17:22;;;;;;;10.15;4.07;;;;;;;2.05;88.47;103851.69;5073266;28;20476;-91
2022/01/12 08:19:47;;;;;;;10.75;4.28;;;;;;;2.05;88.52;103850.78;5073315;28;20028;-91
2022/01/12 08:22:12;;;;;;;8.93;3.83;;;;;;;2.04;88.58;103857.59;5072488;28;20025;-91
2022/01/12 08:24:37;;;;;;;10.85;4.00;;;;;;;2.04;88.67;103852.47;5074802;28;20024;-92
2022/01/12 08:27:03;;;;;;;12.45;4.40;;;;;;;2.05;88.75;103863.59;5083678;28;20046;-92
2022/01/12 08:29:31;;;;;;;11.00;4.38;;;;;;;2.05;88.68;103850.78;5087639;28;20035;-91
2022/01/12 08:31:56;;;;;;;10.75;4.63;;;;;;;2.06;88.48;103861.16;5077057;28;20035;-92
2022/01/12 08:34:22;;;;;;;10.30;4.32;;;;;;;2.08;88.60;103859.59;5076865;28;20431;-91
2022/01/12 08:36:48;;;;;;;10.45;4.35;;;;;;;2.09;88.59;103858.78;5076594;28;20027;-92
2022/01/12 08:39:13;;;;;;;11.25;4.88;;;;;;;2.11;88.48;103861.47;5076583;28;20028;-92
2022/01/12 08:41:39;;;;;;;12.80;5.10;;;;;;;2.12;88.80;103860.69;5076166;28;20371;-92
2022/01/12 08:44:06;;;;;;;13.45;5.20;;;;;;;2.14;88.72;103856.53;5076160;28;20025;-92
2022/01/12 08:46:31;;;;;;;10.82;4.68;;;;;;;2.15;88.55;103848.06;5076790;28;20024;-92
2022/01/12 08:48:57;;;;;;;10.43;4.47;;;;;;;2.18;88.47;103855.97;5076123;28;20037;-90
2022/01/12 08:51:22;;;;;;;11.48;4.70;;;;;;;2.21;88.89;103850.13;5079630;28;20028;-90
2022/01/12 08:53:48;;;;;;;15.30;5.85;;;;;;;2.23;88.67;103852.06;5089722;28;20029;-96
2022/01/12 08:56:13;;;;;;;14.35;5.40;;;;;;;2.25;89.02;103860.69;5075337;28;20537;-94
2022/01/12 08:58:40;;;;;;;15.85;5.93;;;;;;;2.25;88.99;103870.94;5075479;28;20052;-93
2022/01/12 09:01:16;;;;;;;14.40;5.53;;;;;;;2.23;88.67;103856.25;5039290;28;20384;-95
2022/01/12 09:03:42;;;;;;;16.48;6.43;;;;;;;2.27;88.31;103863.38;5074991;28;20032;-94
2022/01/12 09:06:08;;;;;;;16.45;6.25;;;;;;;2.33;88.61;103873.16;5074635;28;20012;-94
2022/01/12 09:08:50;;;;;;;15.80;6.28;;;;;;;2.31;89.03;103875.59;5074728;28;20032;-94
2022/01/12 09:11:18;;;;;;;28.90;14.65;;;;;;;2.21;91.67;103883.47;5074153;28;20114;-95
2022/01/12 09:13:43;;;;;;;27.85;13.70;;;;;;;2.12;91.45;103889.75;5074644;28;20028;-94
2022/01/12 09:16:10;;;;;;;25.63;11.85;;;;;;;2.18;90.30;103904.66;5074467;28;20024;-94
2022/01/12 09:18:49;;;;;;;;;;;;;;;2.19;90.47;103896.19;5074778;28;20017;-91
2022/01/12 09:21:15;;;;;;;22.85;10.32;;;;;;;2.18;91.09;103901.22;5074411;28;19912;-91
2022/01/12 09:23:40;;;;;;;23.50;11.07;;;;;;;2.20;91.18;103902.19;5073494;28;20017;-91
2022/01/12 09:26:21;;;;;;;21.10;8.95;;;;;;;2.23;90.45;103905.88;5074641;28;20082;-91
2022/01/12 09:28:48;;;;;;;20.08;8.40;;;;;;;2.26;90.65;103903.50;5074145;28;20119;-91
2022/01/12 09:31:14;;;;;;;17.13;6.90;;;;;;;2.24;90.52;103904.19;5073722;28;20080;-91
2022/01/12 09:33:50;;;;;;;19.65;8.73;;;;;;;2.26;91.37;103915.44;5073743;28;20052;-91
2022/01/12 09:36:16;;;;;;;23.75;10.38;;;;;;;2.25;91.87;103908.53;5073481;28;20060;-91
2022/01/12 09:39:00;;;;;;;19.52;8.20;;;;;;;2.30;91.01;103925.13;5073844;28;20017;-91
2022/01/12 09:41:27;;;;;;;20.98;8.77;;;;;;;2.31;91.29;103921.75;5072395;28;20032;-92
2022/01/12 09:43:54;;;;;;;17.85;7.13;;;;;;;2.34;90.92;103918.53;5074459;28;20096;-91
2022/01/12 09:46:23;;;;;;;14.63;5.93;;;;;;;2.39;90.62;103922.28;5073106;28;20116;-90
2022/01/12 09:48:54;;;;;;;15.27;6.22;;;;;;;2.38;90.53;103918.84;5073935;28;20035;-91
2022/01/12 09:51:22;;;;;;;14.15;5.60;;;;;;;2.43;90.51;103926.84;5073428;28;20473;-91
2022/01/12 09:54:02;;;;;;;13.45;5.20;;;;;;;2.46;90.38;103927.94;5087489;28;20035;-91
2022/01/12 09:56:31;;;;;;;16.33;6.20;;;;;;;2.46;91.52;103933.06;5037042;28;1048468;-91
2022/01/12 09:58:59;;;;;;;16.42;6.22;;;;;;;2.49;91.00;103940.06;5073890;28;20081;-91
2022/01/12 10:01:48;;;;;;;23.23;10.82;;;;;;;2.45;91.87;103948.34;5073859;28;20037;-91
2022/01/12 10:04:22;;;;;;;19.55;8.18;;;;;;;2.38;91.15;103939.34;5074701;28;20063;-91
2022/01/12 10:07:04;;;;;;;17.52;7.22;;;;;;;2.39;90.98;103948.81;5073743;28;20016;-91
2022/01/12 10:09:33;;;;;;;24.58;11.60;;;;;;;2.41;93.31;103960.06;5074475;28;20033;-91
2022/01/12 10:12:19;;;;;;;24.85;12.13;;;;;;;2.35;92.98;103961.31;5074722;28;20028;-90
2022/01/12 10:14:55;;;;;;;24.70;11.77;;;;;;;2.31;93.18;103966.22;5073666;28;20023;-90
2022/01/12 10:17:39;;;;;;;20.48;9.30;;;;;;;2.38;92.12;103964.06;5067459;28;20508;-90
2022/01/12 10:20:23;;;;;;;19.15;8.32;;;;;;;2.37;91.78;103957.16;5073494;28;20382;-90
2022/01/12 10:23:16;;;;;;;17.15;7.30;;;;;;;2.42;92.65;103963.50;5074263;28;20017;-90
2022/01/12 10:25:46;;;;;;;22.70;10.27;;;;;;;2.34;93.96;103952.72;5074301;28;20564;-90
2022/01/12 10:28:24;;;;;;;24.20;11.82;;;;;;;2.33;93.69;103939.81;5073279;28;20049;-91
2022/01/12 10:30:53;;;;;;;21.42;9.70;;;;;;;2.38;93.32;103946.13;5074086;28;20476;-90
2022/01/12 10:33:19;;;;;;;20.92;9.15;;;;;;;2.41;93.43;103942.13;5074101;28;20024;-91
2022/01/12 10:35:59;;;;;;;24.65;11.30;;;;;;;2.31;94.33;103932.00;5073533;28;20401;-91
2022/01/12 10:38:25;;;;;;;32.63;15.90;;;;;;;2.24;94.73;103940.06;5074456;28;20640;-91
2022/01/12 10:40:53;;;;;;;28.48;13.65;;;;;;;2.22;94.86;103947.66;5073963;28;20028;-90
2022/01/12 10:43:43;;;;;;;27.40;13.57;;;;;;;2.23;94.49;103954.56;5073534;28;20418;-90
2022/01/12 10:46:09;;;;;;;25.88;12.55;;;;;;;2.24;93.68;103951.22;5073833;28;20029;-91
2022/01/12 10:48:55;;;;;;;30.05;14.18;;;;;;;2.22;94.48;103954.44;5072597;28;20028;-92
2022/01/12 10:51:26;;;;;;;34.85;16.83;;;;;;;2.17;94.98;103964.38;5073399;28;20498;-86
2022/01/12 10:53:53;;;;;;;35.47;17.10;;;;;;;2.10;95.22;103941.66;5073065;28;20157;-86
2022/01/12 10:56:21;;;;;;;33.78;15.32;;;;;;;2.13;95.26;103952.13;5156459;22;20505;-86
2022/01/12 10:58:48;;;;;;;34.38;16.77;;;;;;;2.12;94.92;103953.78;5097454;28;20056;-91
2022/01/12 11:01:15;;;;;;;;;;;;;;;2.13;95.25;103958.16;5103277;28;20028;-92
2022/01/12 11:03:50;;;;;;;35.35;15.95;;;;;;;2.12;95.22;103964.03;5092764;28;19920;-93
2022/01/12 11:06:26;;;;;;;30.85;14.45;;;;;;;2.17;95.22;103972.06;5094270;28;20027;-93
2022/01/12 11:08:51;;;;;;;33.63;14.90;;;;;;;2.13;94.98;103949.59;5094374;28;20031;-92
2022/01/12 11:11:42;;;;;;;36.95;17.27;;;;;;;2.20;95.22;103951.78;5093848;28;20024;-94
2022/01/12 11:14:09;;;;;;;34.60;17.25;;;;;;;2.15;95.14;103951.47;5093673;28;20016;-92
2022/01/12 11:16:34;;;;;;;33.10;15.30;;;;;;;2.16;94.87;103952.34;5093768;28;20020;-91
2022/01/12 11:19:01;;;;;;;32.72;15.35;;;;;;;2.24;95.10;103952.88;5093970;28;20077;-89
2022/01/12 11:21:56;;;;;;;30.10;13.82;;;;;;;2.28;94.52;103948.06;5093927;28;20048;-88
2022/01/12 11:24:39;;;;;;;25.85;10.95;;;;;;;2.32;93.83;103956.84;5093753;28;20027;-89
2022/01/12 11:27:06;;;;;;;23.95;9.50;;;;;;;2.37;94.11;103963.19;5093715;28;20031;-88
2022/01/12 11:29:34;;;;;;;22.13;9.85;;;;;;;2.48;94.11;103981.88;5093467;28;20447;-89
2022/01/12 11:32:23;;;;;;;29.42;13.65;;;;;;;2.46;93.58;103974.06;5074447;28;20047;-91
2022/01/12 11:35:03;;;;;;;25.00;11.15;;;;;;;2.44;93.30;103962.81;5059142;28;20051;-93
2022/01/12 11:37:59;;;;;;;21.67;8.90;;;;;;;2.53;93.40;103977.94;5093575;28;20379;-92
2022/01/12 11:41:11;;;;;;;23.98;10.25;;;;;;;2.55;93.43;103978.94;5093594;28;20036;-93
2022/01/12 11:44:06;;;;;;;32.13;14.65;;;;;;;2.45;93.29;103972.28;5093908;28;20039;-92
2022/01/12 11:46:45;;;;;;;30.98;14.15;;;;;;;2.42;93.44;103971.19;5092390;28;20107;-92
2022/01/12 11:49:43;;;;;;;30.02;13.52;;;;;;;2.42;92.99;103972.06;5092456;28;20515;-92
2022/01/12 11:52:30;;;;;;;24.38;10.40;;;;;;;2.45;92.78;103941.53;5096677;28;20055;-92
2022/01/12 11:55:30;;;;;;;21.17;8.43;;;;;;;2.57;92.65;103951.75;5095498;28;20032;-93
2022/01/12 11:58:01;;;;;;;19.13;7.38;;;;;;;2.57;92.41;103931.22;5094082;28;20031;-92
2022/01/12 12:00:46;;;;;;;17.60;6.60;;;;;;;2.68;92.63;103955.03;5096292;28;20035;-92
2022/01/12 12:03:19;;;;;;;16.80;6.40;;;;;;;2.70;92.39;103957.72;5096764;28;20399;-92
2022/01/12 12:05:59;;;;;;;14.40;5.32;;;;;;;2.69;92.38;103963.63;5096902;28;20331;-92
2022/01/12 12:08:25;;;;;;;14.02;5.10;;;;;;;2.70;92.30;103950.00;5095468;28;20024;-93
2022/01/12 12:11:11;;;;;;;19.55;7.50;;;;;;;2.74;92.21;103951.97;5090729;28;20526;-91
2022/01/12 12:13:40;;;;;;;18.48;6.80;;;;;;;2.72;92.08;103956.13;5086562;28;20047;-93
2022/01/12 12:16:06;;;;;;;15.70;5.93;;;;;;;2.80;91.85;103965.25;5097101;28;20025;-93
2022/01/12 12:18:32;;;;;;;16.20;5.45;;;;;;;2.88;92.26;103964.06;5096466;28;20492;-88
2022/01/12 12:21:12;;;;;;;15.25;5.47;;;;;;;2.93;91.80;103965.25;5092914;28;20432;-90
2022/01/12 12:23:38;;;;;;;13.32;4.97;;;;;;;2.96;91.87;103961.13;5096884;28;20030;-89
2022/01/12 12:26:08;;;;;;;11.57;4.45;;;;;;;2.99;91.51;103962.19;5096131;28;20016;-89
2022/01/12 12:28:34;;;;;;;11.95;4.55;;;;;;;3.04;91.49;103967.66;5096307;28;20054;-89
2022/01/12 12:31:06;;;;;;;14.57;5.13;;;;;;;3.05;91.40;103957.50;5093560;28;20039;-81
2022/01/12 12:33:40;;;;;;;13.60;4.80;;;;;;;3.07;91.48;103955.00;5095891;28;20020;-89
2022/01/12 12:36:06;;;;;;;14.90;5.28;;;;;;;3.13;91.53;103957.09;5096443;28;20031;-89
2022/01/12 12:38:46;;;;;;;15.00;5.43;;;;;;;3.08;91.07;103959.38;5096007;28;20024;-85
2022/01/12 12:41:12;;;;;;;17.38;6.40;;;;;;;3.07;90.95;103955.91;5094685;28;20101;-86
2022/01/12 12:43:37;;;;;;;22.23;8.48;;;;;;;3.03;90.54;103953.94;5095754;28;20040;-86
2022/01/12 12:46:10;;;;;;;26.50;11.10;;;;;;;2.96;90.64;103945.72;5095859;28;20016;-88
2022/01/12 12:48:36;;;;;;;29.90;14.65;;;;;;;2.81;89.98;103935.34;5087620;28;20085;-88
2022/01/12 12:51:16;;;;;;;29.88;13.27;;;;;;;2.76;90.73;103930.78;5075504;28;20024;-85